createdAt,value
2022-11-01T00:01:48.092Z,58.50
2022-11-01T00:07:01.584Z,57.20
2022-11-01T00:12:14.941Z,62.20
2022-11-01T00:17:28.322Z,58.50
2022-11-01T00:22:41.732Z,59.57
2022-11-01T00:25:08.956Z,63.92
2022-11-01T00:27:35.682Z,62.38
2022-11-01T00:30:02.407Z,62.40
2022-11-01T00:32:29.151Z,61.15
2022-11-01T00:34:55.880Z,61.40
2022-11-01T00:37:22.633Z,63.72
2022-11-01T00:39:49.349Z,62.50
2022-11-01T00:42:16.080Z,62.05
2022-11-01T00:44:42.824Z,63.73
2022-11-01T00:47:09.552Z,63.85
2022-11-01T00:49:36.254Z,60.10
2022-11-01T00:52:03.150Z,60.42
2022-11-01T00:54:29.889Z,62.35
2022-11-01T00:56:56.629Z,60.30
2022-11-01T00:59:23.391Z,60.53
2022-11-01T01:01:50.313Z,58.13
2022-11-01T01:04:17.226Z,60.70
2022-11-01T01:06:43.980Z,60.47
2022-11-01T01:09:11.489Z,57.78
2022-11-01T01:11:38.235Z,58.55
2022-11-01T01:14:04.989Z,57.20
2022-11-01T01:16:31.788Z,56.70
2022-11-01T01:18:58.710Z,57.30
2022-11-01T01:21:25.441Z,58.30
2022-11-01T01:23:52.160Z,55.92
2022-11-01T01:26:19.151Z,54.70
2022-11-01T01:28:46.046Z,56.83
2022-11-01T01:31:13.446Z,55.03
2022-11-01T01:33:40.200Z,57.22
2022-11-01T01:36:07.437Z,54.05
2022-11-01T01:38:34.144Z,53.28
2022-11-01T01:41:00.972Z,53.17
2022-11-01T01:43:41.444Z,51.08
2022-11-01T01:48:58.322Z,51.28
2022-11-01T01:51:27.722Z,50.83
2022-11-01T01:53:56.455Z,50.33
2022-11-01T01:59:23.046Z,49.45
2022-11-01T02:01:50.067Z,48.97
2022-11-01T02:04:34.756Z,47.25
2022-11-01T02:07:01.755Z,46.38
2022-11-01T02:09:30.909Z,48.38
2022-11-01T02:11:58.579Z,49.15
2022-11-01T02:14:26.181Z,47.92
2022-11-01T02:17:05.599Z,48.00
2022-11-01T02:19:41.134Z,48.08
2022-11-01T02:22:41.894Z,47.45
2022-11-01T02:25:36.303Z,48.63
2022-11-01T02:28:17.570Z,44.72
2022-11-01T02:30:56.580Z,46.05
2022-11-01T02:36:30.948Z,45.92
2022-11-01T02:39:09.867Z,46.45
2022-11-01T02:41:42.326Z,47.60
2022-11-01T02:44:25.597Z,46.03
2022-11-01T02:46:52.699Z,48.17
2022-11-01T02:49:22.196Z,46.40
2022-11-01T02:51:50.181Z,46.95
2022-11-01T02:57:17.623Z,49.38
2022-11-01T03:02:41.324Z,50.95
2022-11-01T03:05:32.459Z,50.50
2022-11-01T03:17:32.856Z,53.92
2022-11-01T03:20:24.746Z,52.55
2022-11-01T03:22:58.175Z,52.20
2022-11-01T03:25:36.283Z,50.90
2022-11-01T03:28:27.137Z,52.53
2022-11-01T03:31:05.624Z,52.30
2022-11-01T03:33:37.476Z,52.55
2022-11-01T03:36:13.491Z,51.63
2022-11-01T03:38:45.809Z,52.53
2022-11-01T03:41:15.590Z,51.88
2022-11-01T03:43:42.317Z,52.13
2022-11-01T03:46:09.618Z,51.13
2022-11-01T03:48:40.266Z,50.28
2022-11-01T03:51:07.596Z,49.38
2022-11-01T03:53:34.363Z,47.05
2022-11-01T03:56:01.199Z,47.33
2022-11-01T03:58:28.039Z,46.40
2022-11-01T04:00:54.803Z,46.15
2022-11-01T04:03:21.556Z,48.05
2022-11-01T04:05:48.240Z,48.55
2022-11-01T04:08:15.056Z,47.13
2022-11-01T04:10:41.781Z,49.03
2022-11-01T04:13:08.939Z,47.75
2022-11-01T04:15:35.996Z,48.22
2022-11-01T04:18:17.787Z,47.80
2022-11-01T04:23:31.244Z,46.78
2022-11-01T04:28:44.851Z,47.67
2022-11-01T04:31:11.548Z,46.40
2022-11-01T04:33:38.274Z,45.42
2022-11-01T04:36:08.069Z,45.55
2022-11-01T04:41:22.979Z,44.97
2022-11-01T04:46:38.787Z,44.40
2022-11-01T04:51:52.177Z,44.83
2022-11-01T04:54:18.934Z,45.88
2022-11-01T04:56:45.682Z,44.20
2022-11-01T04:59:12.386Z,44.22
2022-11-01T05:01:39.224Z,44.13
2022-11-01T05:04:06.440Z,42.63
2022-11-01T05:06:33.282Z,44.13
2022-11-01T05:09:00.054Z,44.03
2022-11-01T05:11:26.807Z,43.72
2022-11-01T05:13:53.585Z,43.17
2022-11-01T05:16:21.148Z,42.53
2022-11-01T05:18:48.754Z,43.58
2022-11-01T05:21:15.648Z,43.78
2022-11-01T05:23:42.448Z,43.60
2022-11-01T05:26:09.230Z,43.40
2022-11-01T05:28:35.963Z,44.38
2022-11-01T05:29:34.567Z,0
2022-11-01T05:31:02.706Z,42.80
2022-11-01T05:33:29.432Z,41.92
2022-11-01T05:38:42.808Z,41.20
2022-11-01T05:41:09.538Z,41.65
2022-11-01T05:43:36.311Z,41.03
2022-11-01T05:46:07.097Z,42.78
2022-11-01T05:51:01.423Z,42.88
2022-11-01T05:53:28.158Z,43.13
2022-11-01T05:58:46.292Z,40.70
2022-11-01T06:03:59.736Z,42.60
2022-11-01T06:08:53.239Z,42.28
2022-11-01T06:11:19.976Z,41.83
2022-11-01T06:13:46.719Z,42.20
2022-11-01T06:16:13.519Z,42.60
2022-11-01T06:18:40.323Z,42.67
2022-11-01T06:21:07.064Z,41.90
2022-11-01T06:23:33.800Z,42.13
2022-11-01T06:26:05.137Z,42.53
2022-11-01T06:28:32.535Z,41.90
2022-11-01T06:33:31.440Z,41.72
2022-11-01T06:35:58.187Z,41.63
2022-11-01T06:38:24.934Z,42.00
2022-11-01T06:40:51.683Z,41.13
2022-11-01T06:43:18.411Z,42.10
2022-11-01T06:45:45.140Z,42.67
2022-11-01T06:48:11.880Z,42.07
2022-11-01T06:50:38.605Z,43.40
2022-11-01T06:53:05.392Z,43.30
2022-11-01T06:55:32.271Z,42.95
2022-11-01T06:58:00.926Z,42.97
2022-11-01T07:00:35.880Z,43.40
2022-11-01T07:03:07.711Z,43.78
2022-11-01T07:05:37.453Z,43.53
2022-11-01T07:08:10.207Z,43.70
2022-11-01T07:10:39.536Z,44.70
2022-11-01T07:15:54.465Z,43.93
2022-11-01T07:21:07.878Z,43.23
2022-11-01T07:26:21.544Z,41.87
2022-11-01T07:31:35.447Z,41.50
2022-11-01T07:36:53.258Z,39.97
2022-11-01T07:39:19.999Z,41.00
2022-11-01T07:41:46.724Z,42.13
2022-11-01T07:44:13.552Z,41.20
2022-11-01T07:46:40.259Z,43.90
2022-11-01T07:49:07.034Z,43.95
2022-11-01T07:51:33.849Z,42.95
2022-11-01T07:56:48.176Z,44.55
2022-11-01T07:59:14.905Z,46.08
2022-11-01T08:04:28.326Z,44.97
2022-11-01T08:09:21.757Z,45.03
2022-11-01T08:11:48.459Z,45.07
2022-11-01T08:14:15.255Z,44.28
2022-11-01T08:16:42.080Z,44.20
2022-11-01T08:19:10.534Z,44.60
2022-11-01T08:21:37.257Z,43.80
2022-11-01T08:24:04.221Z,43.90
2022-11-01T08:26:30.968Z,43.35
2022-11-01T08:28:58.134Z,43.08
2022-11-01T08:31:24.945Z,43.50
2022-11-01T08:33:51.724Z,41.58
2022-11-01T08:36:18.467Z,42.20
2022-11-01T08:38:45.256Z,41.47
2022-11-01T08:41:11.959Z,39.93
2022-11-01T08:43:40.622Z,39.83
2022-11-01T08:46:07.677Z,40.38
2022-11-01T08:48:34.380Z,39.90
2022-11-01T08:50:14.336Z,0
2022-11-01T08:51:02.265Z,38.85
2022-11-01T08:56:15.695Z,33.75
2022-11-01T09:01:29.401Z,31.95
2022-11-01T09:06:44.455Z,28.60
2022-11-01T09:11:57.892Z,26.80
2022-11-01T09:14:24.678Z,27.25
2022-11-01T09:16:51.886Z,27.00
2022-11-01T09:19:19.151Z,25.02
2022-11-01T09:21:46.749Z,24.90
2022-11-01T09:24:14.746Z,23.70
2022-11-01T09:26:41.938Z,23.58
2022-11-01T09:29:09.421Z,23.15
2022-11-01T09:31:36.353Z,23.20
2022-11-01T09:34:06.617Z,23.13
2022-11-01T09:36:33.361Z,22.63
2022-11-01T09:39:00.130Z,21.98
2022-11-01T09:41:29.709Z,22.63
2022-11-01T09:43:59.479Z,21.70
2022-11-01T09:46:33.013Z,20.27
2022-11-01T09:49:02.234Z,20.67
2022-11-01T09:51:29.178Z,20.50
2022-11-01T09:53:59.577Z,20.60
2022-11-01T09:56:32.388Z,21.10
2022-11-01T09:59:08.052Z,20.10
2022-11-01T10:01:59.380Z,20.03
2022-11-01T10:04:43.917Z,19.50
2022-11-01T10:07:48.540Z,19.10
2022-11-01T10:10:37.188Z,19.25
2022-11-01T10:13:19.199Z,18.92
2022-11-01T10:15:45.920Z,18.15
2022-11-01T10:18:18.871Z,17.63
2022-11-01T10:20:46.571Z,16.10
2022-11-01T10:23:16.966Z,15.80
2022-11-01T10:25:48.878Z,14.88
2022-11-01T10:28:29.668Z,14.00
2022-11-01T10:31:02.570Z,14.63
2022-11-01T10:33:37.313Z,14.63
2022-11-01T10:36:13.604Z,12.60
2022-11-01T10:40:11.752Z,0
2022-11-01T10:41:45.427Z,11.85
2022-11-01T10:47:18.594Z,10.93
2022-11-01T10:50:11.576Z,10.18
2022-11-01T10:52:50.077Z,9.87
2022-11-01T10:58:55.583Z,9.25
2022-11-01T11:01:26.472Z,9.00
2022-11-01T11:06:21.833Z,8.05
2022-11-01T11:08:51.313Z,8.07
2022-11-01T11:11:23.548Z,7.38
2022-11-01T11:13:54.981Z,7.10
2022-11-01T11:16:37.111Z,6.90
2022-11-01T11:19:14.110Z,6.60
2022-11-01T11:21:43.489Z,6.60
2022-11-01T11:24:23.559Z,6.25
2022-11-01T11:26:56.486Z,5.95
2022-11-01T11:29:42.557Z,6.22
2022-11-01T11:32:26.573Z,6.53
2022-11-01T11:34:55.243Z,5.97
2022-11-01T11:37:24.954Z,6.47
2022-11-01T11:42:49.167Z,6.70
2022-11-01T11:45:23.888Z,5.90
2022-11-01T11:47:51.283Z,6.03
2022-11-01T11:50:20.932Z,5.68
2022-11-01T11:53:15.837Z,5.50
2022-11-01T11:58:45.441Z,5.40
2022-11-01T12:04:14.975Z,4.90
2022-11-01T12:06:43.985Z,5.20
2022-11-01T12:12:38.999Z,4.57
2022-11-01T12:15:28.976Z,4.70
2022-11-01T12:17:56.834Z,5.15
2022-11-01T12:26:25.740Z,4.50
2022-11-01T12:29:00.245Z,4.60
2022-11-01T12:31:31.223Z,3.88
2022-11-01T12:34:21.019Z,4.10
2022-11-01T12:37:03.112Z,3.80
2022-11-01T12:40:03.055Z,3.50
2022-11-01T12:42:39.637Z,3.60
2022-11-01T12:45:23.525Z,3.60
2022-11-01T12:47:59.408Z,3.50
2022-11-01T12:51:01.314Z,2.97
2022-11-01T12:53:31.442Z,2.85
2022-11-01T12:55:59.305Z,2.70
2022-11-01T12:58:28.907Z,4.50
2022-11-01T13:01:16.130Z,3.78
2022-11-01T13:03:51.674Z,3.25
2022-11-01T13:13:05.706Z,2.50
2022-11-01T13:15:47.744Z,2.30
2022-11-01T13:18:35.651Z,3.50
2022-11-01T13:21:11.353Z,2.20
2022-11-01T13:29:41.666Z,1.70
2022-11-01T13:32:24.513Z,2.00
2022-11-01T13:35:28.586Z,1.70
2022-11-01T13:38:00.310Z,1.63
2022-11-01T13:40:42.049Z,1.80
2022-11-01T13:43:14.360Z,1.50
2022-11-01T13:45:56.853Z,1.77
2022-11-01T13:48:47.412Z,1.30
2022-11-01T13:51:41.891Z,1.70
2022-11-01T13:54:29.602Z,1.50
2022-11-01T13:57:10.203Z,1.60
2022-11-01T13:59:36.907Z,1.58
2022-11-01T14:02:22.675Z,1.50
2022-11-01T14:03:52.361Z,0
2022-11-01T14:05:12.030Z,1.75
2022-11-01T14:07:44.504Z,2.33
2022-11-01T14:10:31.196Z,1.80
2022-11-01T14:12:57.927Z,1.67
2022-11-01T14:15:26.705Z,1.80
2022-11-01T14:17:53.432Z,1.80
2022-11-01T14:20:20.150Z,1.70
2022-11-01T14:22:47.142Z,1.55
2022-11-01T14:25:13.930Z,2.67
2022-11-01T14:27:50.523Z,2.20
2022-11-01T14:30:30.988Z,2.60
2022-11-01T14:33:00.227Z,2.45
2022-11-01T14:38:36.825Z,1.77
2022-11-01T14:41:05.346Z,2.08
2022-11-01T14:43:43.738Z,1.70
2022-11-01T14:46:18.327Z,1.85
2022-11-01T14:49:10.635Z,1.90
2022-11-01T14:51:44.775Z,1.93
2022-11-01T14:57:30.178Z,1.80
2022-11-01T15:02:45.129Z,2.00
2022-11-01T15:05:14.545Z,1.90
2022-11-01T15:07:41.886Z,4.65
2022-11-01T15:10:13.797Z,3.30
2022-11-01T15:12:56.955Z,3.13
2022-11-01T15:15:27.787Z,2.40
2022-11-01T15:17:58.379Z,2.10
2022-11-01T15:20:28.619Z,2.05
2022-11-01T15:22:57.243Z,1.90
2022-11-01T15:25:26.317Z,2.05
2022-11-01T15:27:55.505Z,1.90
2022-11-01T15:30:32.210Z,2.35
2022-11-01T15:33:24.832Z,2.10
2022-11-01T15:36:00.056Z,2.78
2022-11-01T15:38:27.807Z,2.30
2022-11-01T15:40:54.548Z,2.70
2022-11-01T15:43:23.986Z,2.15
2022-11-01T15:45:55.793Z,2.20
2022-11-01T15:48:29.242Z,2.27
2022-11-01T15:51:00.735Z,2.30
2022-11-01T15:53:31.033Z,2.20
2022-11-01T15:56:12.131Z,2.30
2022-11-01T15:58:44.214Z,2.20
2022-11-01T16:01:17.951Z,2.10
2022-11-01T16:03:51.208Z,2.35
2022-11-01T16:06:44.713Z,2.50
2022-11-01T16:09:38.227Z,2.10
2022-11-01T16:12:14.523Z,2.20
2022-11-01T16:14:41.802Z,2.00
2022-11-01T16:17:35.191Z,1.98
2022-11-01T16:20:03.966Z,1.90
2022-11-01T16:22:42.919Z,2.10
2022-11-01T16:25:09.607Z,2.10
2022-11-01T16:27:52.677Z,2.22
2022-11-01T16:30:56.568Z,2.33
2022-11-01T16:33:23.247Z,2.13
2022-11-01T16:35:58.619Z,1.80
2022-11-01T16:38:36.161Z,2.30
2022-11-01T16:41:06.160Z,2.20
2022-11-01T16:43:34.673Z,2.25
2022-11-01T16:46:03.094Z,2.20
2022-11-01T16:48:33.129Z,1.90
2022-11-01T16:51:01.472Z,2.50
2022-11-01T16:53:30.058Z,2.00
2022-11-01T16:56:30.539Z,2.70
2022-11-01T16:58:59.277Z,2.92
2022-11-01T17:01:32.559Z,2.53
2022-11-01T17:04:02.144Z,2.67
2022-11-01T17:06:28.910Z,2.28
2022-11-01T17:08:58.117Z,2.50
2022-11-01T17:11:25.361Z,2.50
2022-11-01T17:13:52.491Z,4.20
2022-11-01T17:16:25.615Z,3.25
2022-11-01T17:21:43.948Z,2.37
2022-11-01T17:27:00.912Z,2.60
2022-11-01T17:32:14.610Z,2.88
2022-11-01T17:37:28.107Z,2.60
2022-11-01T17:42:41.910Z,2.80
2022-11-01T17:47:57.543Z,2.60
2022-11-01T17:53:13.838Z,2.30
2022-11-01T17:58:28.448Z,2.08
2022-11-01T18:00:55.346Z,2.40
2022-11-01T18:03:23.039Z,1.80
2022-11-01T18:05:50.450Z,1.90
2022-11-01T18:08:20.692Z,2.20
2022-11-01T18:10:53.677Z,2.40
2022-11-01T18:13:29.465Z,4.00
2022-11-01T18:16:15.203Z,2.45
2022-11-01T18:22:12.408Z,4.50
2022-11-01T18:24:46.194Z,3.50
2022-11-01T18:27:13.542Z,2.50
2022-11-01T18:32:42.620Z,1.90
2022-11-01T18:35:33.459Z,2.33
2022-11-01T18:38:26.222Z,2.17
2022-11-01T18:41:02.824Z,1.90
2022-11-01T18:43:34.841Z,2.03
2022-11-01T18:46:29.316Z,0
2022-11-01T18:46:30.913Z,2.30
2022-11-01T18:49:00.985Z,2.10
2022-11-01T18:51:34.782Z,2.50
2022-11-01T18:54:18.623Z,1.83
2022-11-01T18:56:56.250Z,2.17
2022-11-01T18:59:25.820Z,2.17
2022-11-01T19:02:00.494Z,2.13
2022-11-01T19:04:31.039Z,2.40
2022-11-01T19:07:13.338Z,2.10
2022-11-01T19:08:26.701Z,0
2022-11-01T19:09:42.083Z,2.33
2022-11-01T19:12:24.106Z,3.78
2022-11-01T19:14:57.609Z,3.13
2022-11-01T19:17:31.003Z,2.70
2022-11-01T19:19:57.826Z,2.15
2022-11-01T19:22:36.900Z,2.20
2022-11-01T19:28:34.048Z,2.50
2022-11-01T19:31:15.952Z,1.90
2022-11-01T19:33:46.393Z,2.30
2022-11-01T19:36:21.176Z,2.10
2022-11-01T19:38:48.698Z,2.40
2022-11-01T19:41:28.903Z,2.30
2022-11-01T19:44:05.081Z,2.90
2022-11-01T19:49:29.730Z,2.72
2022-11-01T19:52:23.738Z,2.60
2022-11-01T19:54:52.851Z,2.70
2022-11-01T19:57:32.621Z,2.15
2022-11-01T20:03:24.167Z,3.28
2022-11-01T20:05:50.948Z,2.90
2022-11-01T20:08:32.581Z,2.40
2022-11-01T20:10:59.725Z,2.30
2022-11-01T20:13:26.461Z,2.60
2022-11-01T20:15:53.191Z,2.45
2022-11-01T20:18:19.912Z,2.47
2022-11-01T20:20:46.675Z,2.55
2022-11-01T20:23:26.307Z,2.55
2022-11-01T20:25:53.851Z,2.20
2022-11-01T20:28:20.588Z,2.90
2022-11-01T20:30:47.352Z,2.50
2022-11-01T20:33:14.149Z,2.28
2022-11-01T20:35:40.875Z,2.50
2022-11-01T20:38:07.696Z,2.63
2022-11-01T20:40:34.565Z,2.35
2022-11-01T20:43:01.634Z,2.63
2022-11-01T20:45:28.568Z,2.83
2022-11-01T20:47:55.338Z,2.50
2022-11-01T20:50:22.047Z,2.70
2022-11-01T20:52:48.758Z,2.50
2022-11-01T20:55:15.585Z,2.75
2022-11-01T20:57:42.402Z,3.03
2022-11-01T21:02:57.766Z,2.20
2022-11-01T21:08:26.642Z,2.77
2022-11-01T21:11:02.019Z,2.80
2022-11-01T21:13:35.210Z,2.95
2022-11-01T21:16:03.650Z,2.53
2022-11-01T21:18:30.331Z,2.67
2022-11-01T21:20:58.387Z,2.53
2022-11-01T21:23:33.621Z,2.60
2022-11-01T21:26:02.461Z,2.70
2022-11-01T21:31:37.592Z,3.92
2022-11-01T21:34:10.271Z,2.90
2022-11-01T21:36:47.793Z,3.92
2022-11-01T21:39:25.008Z,2.92
2022-11-01T21:41:54.586Z,3.10
2022-11-01T21:47:23.021Z,2.92
2022-11-01T21:49:50.693Z,2.30
2022-11-01T21:52:17.843Z,2.55
2022-11-01T21:54:45.030Z,3.00
2022-11-01T21:57:12.794Z,2.40
2022-11-01T21:59:40.156Z,2.60
2022-11-01T22:02:09.819Z,2.60
2022-11-01T22:04:36.630Z,2.35
2022-11-01T22:07:05.570Z,2.50
2022-11-01T22:09:33.596Z,2.95
2022-11-01T22:14:47.500Z,2.60
2022-11-01T22:17:14.186Z,2.88
2022-11-01T22:19:40.921Z,2.57
2022-11-01T22:22:07.655Z,2.78
2022-11-01T22:24:34.361Z,2.60
2022-11-01T22:27:01.071Z,2.70
2022-11-01T22:29:27.816Z,2.20
2022-11-01T22:31:54.529Z,2.47
2022-11-01T22:37:12.658Z,2.50
2022-11-01T22:39:39.721Z,2.30
2022-11-01T22:42:12.155Z,2.60
2022-11-01T22:44:39.860Z,2.50
2022-11-01T22:50:01.557Z,2.30
2022-11-01T22:52:36.718Z,2.50
2022-11-01T22:55:12.587Z,2.47
2022-11-01T22:57:46.746Z,2.30
2022-11-01T23:00:34.051Z,2.40
2022-11-01T23:03:14.615Z,2.78
2022-11-01T23:05:41.963Z,2.45
2022-11-01T23:08:29.589Z,2.17
2022-11-01T23:10:57.105Z,2.25
2022-11-01T23:13:28.780Z,2.40
2022-11-01T23:16:00.657Z,2.30
2022-11-01T23:18:30.660Z,2.20
2022-11-01T23:21:08.154Z,2.65
2022-11-01T23:23:41.835Z,2.40
2022-11-01T23:26:09.014Z,2.10
2022-11-01T23:28:37.271Z,2.20
2022-11-01T23:31:05.069Z,2.20
2022-11-01T23:33:46.649Z,2.40
2022-11-01T23:36:39.534Z,2.60
2022-11-01T23:39:15.415Z,1.98
2022-11-01T23:44:37.320Z,2.30
2022-11-01T23:47:18.164Z,2.00
2022-11-01T23:49:46.489Z,2.23
2022-11-01T23:52:45.775Z,2.30
